sensor_id;sensor_type;location;lat;lon;timestamp;P1;durP1;ratioP1;P2;durP2;ratioP2
2998;SDS011;1509;51.964;7.628;2023-11-21T00:00:21;20.37;;;11.70;;
2998;SDS011;1509;51.964;7.628;2023-11-21T00:02:46;18.60;;;12.30;;
2998;SDS011;1509;51.964;7.628;2023-11-21T00:05:13;17.50;;;12.83;;
2998;SDS011;1509;51.964;7.628;2023-11-21T00:07:40;21.97;;;13.83;;
2998;SDS011;1509;51.964;7.628;2023-11-21T00:10:07;22.07;;;12.07;;
2998;SDS011;1509;51.964;7.628;2023-11-21T00:12:33;17.63;;;12.60;;
2998;SDS011;1509;51.964;7.628;2023-11-21T00:14:59;15.10;;;11.70;;
2998;SDS011;1509;51.964;7.628;2023-11-21T00:17:26;15.97;;;11.57;;
2998;SDS011;1509;51.964;7.628;2023-11-21T00:19:52;23.03;;;13.03;;
2998;SDS011;1509;51.964;7.628;2023-11-21T00:22:18;18.20;;;12.63;;
2998;SDS011;1509;51.964;7.628;2023-11-21T00:24:43;14.90;;;12.47;;
2998;SDS011;1509;51.964;7.628;2023-11-21T00:27:09;16.67;;;13.00;;
2998;SDS011;1509;51.964;7.628;2023-11-21T00:29:35;19.10;;;13.13;;
2998;SDS011;1509;51.964;7.628;2023-11-21T00:32:01;17.57;;;12.67;;
2998;SDS011;1509;51.964;7.628;2023-11-21T00:34:27;17.10;;;12.67;;
2998;SDS011;1509;51.964;7.628;2023-11-21T00:36:55;18.00;;;12.60;;
2998;SDS011;1509;51.964;7.628;2023-11-21T00:39:21;20.23;;;12.40;;
2998;SDS011;1509;51.964;7.628;2023-11-21T00:41:46;15.53;;;11.63;;
2998;SDS011;1509;51.964;7.628;2023-11-21T00:44:13;17.87;;;11.80;;
2998;SDS011;1509;51.964;7.628;2023-11-21T00:46:38;17.43;;;12.87;;
2998;SDS011;1509;51.964;7.628;2023-11-21T00:49:04;16.87;;;12.17;;
2998;SDS011;1509;51.964;7.628;2023-11-21T00:51:30;16.20;;;11.90;;
2998;SDS011;1509;51.964;7.628;2023-11-21T00:53:56;17.47;;;11.53;;
2998;SDS011;1509;51.964;7.628;2023-11-21T00:56:21;20.83;;;11.90;;
2998;SDS011;1509;51.964;7.628;2023-11-21T00:58:47;16.63;;;12.30;;
2998;SDS011;1509;51.964;7.628;2023-11-21T01:01:15;22.13;;;11.63;;
2998;SDS011;1509;51.964;7.628;2023-11-21T01:03:41;18.13;;;12.07;;
2998;SDS011;1509;51.964;7.628;2023-11-21T01:06:07;17.90;;;11.30;;
2998;SDS011;1509;51.964;7.628;2023-11-21T01:08:33;23.00;;;12.20;;
2998;SDS011;1509;51.964;7.628;2023-11-21T01:11:00;20.00;;;11.47;;
2998;SDS011;1509;51.964;7.628;2023-11-21T01:13:26;23.17;;;12.20;;
2998;SDS011;1509;51.964;7.628;2023-11-21T01:15:54;21.23;;;12.07;;
2998;SDS011;1509;51.964;7.628;2023-11-21T01:18:20;17.67;;;11.73;;
2998;SDS011;1509;51.964;7.628;2023-11-21T01:20:46;14.93;;;11.70;;
2998;SDS011;1509;51.964;7.628;2023-11-21T01:23:14;24.50;;;11.70;;
2998;SDS011;1509;51.964;7.628;2023-11-21T01:25:40;18.50;;;13.00;;
2998;SDS011;1509;51.964;7.628;2023-11-21T01:28:06;20.50;;;11.90;;
2998;SDS011;1509;51.964;7.628;2023-11-21T01:30:32;19.87;;;12.60;;
2998;SDS011;1509;51.964;7.628;2023-11-21T01:32:58;22.43;;;13.27;;
2998;SDS011;1509;51.964;7.628;2023-11-21T01:35:24;21.60;;;12.53;;
2998;SDS011;1509;51.964;7.628;2023-11-21T01:37:49;21.27;;;11.83;;
2998;SDS011;1509;51.964;7.628;2023-11-21T01:40:15;25.33;;;12.23;;
2998;SDS011;1509;51.964;7.628;2023-11-21T01:42:41;21.70;;;13.17;;
2998;SDS011;1509;51.964;7.628;2023-11-21T01:45:08;24.70;;;13.63;;
2998;SDS011;1509;51.964;7.628;2023-11-21T01:47:35;28.80;;;13.87;;
2998;SDS011;1509;51.964;7.628;2023-11-21T01:50:01;17.93;;;12.10;;
2998;SDS011;1509;51.964;7.628;2023-11-21T01:52:29;21.47;;;12.17;;
2998;SDS011;1509;51.964;7.628;2023-11-21T01:54:55;19.90;;;12.63;;
2998;SDS011;1509;51.964;7.628;2023-11-21T01:57:22;20.27;;;13.23;;
2998;SDS011;1509;51.964;7.628;2023-11-21T01:59:48;23.70;;;11.00;;
2998;SDS011;1509;51.964;7.628;2023-11-21T02:02:15;16.63;;;10.97;;
2998;SDS011;1509;51.964;7.628;2023-11-21T02:04:40;18.50;;;13.13;;
2998;SDS011;1509;51.964;7.628;2023-11-21T02:07:06;19.83;;;12.60;;
2998;SDS011;1509;51.964;7.628;2023-11-21T02:09:32;17.37;;;11.57;;
2998;SDS011;1509;51.964;7.628;2023-11-21T02:11:59;19.33;;;11.80;;
2998;SDS011;1509;51.964;7.628;2023-11-21T02:14:26;20.97;;;13.60;;
2998;SDS011;1509;51.964;7.628;2023-11-21T02:16:53;19.40;;;12.37;;
2998;SDS011;1509;51.964;7.628;2023-11-21T02:19:19;19.83;;;13.70;;
2998;SDS011;1509;51.964;7.628;2023-11-21T02:21:47;19.93;;;13.10;;
2998;SDS011;1509;51.964;7.628;2023-11-21T02:24:15;21.17;;;14.23;;
2998;SDS011;1509;51.964;7.628;2023-11-21T02:26:42;25.03;;;13.13;;
2998;SDS011;1509;51.964;7.628;2023-11-21T02:29:08;19.40;;;12.50;;
2998;SDS011;1509;51.964;7.628;2023-11-21T02:31:37;18.37;;;12.60;;
2998;SDS011;1509;51.964;7.628;2023-11-21T02:34:10;24.73;;;13.00;;
2998;SDS011;1509;51.964;7.628;2023-11-21T02:36:38;19.20;;;11.60;;
2998;SDS011;1509;51.964;7.628;2023-11-21T02:39:04;18.60;;;12.23;;
2998;SDS011;1509;51.964;7.628;2023-11-21T02:41:29;28.27;;;11.70;;
2998;SDS011;1509;51.964;7.628;2023-11-21T02:43:55;23.37;;;12.93;;
2998;SDS011;1509;51.964;7.628;2023-11-21T02:46:21;19.53;;;13.03;;
2998;SDS011;1509;51.964;7.628;2023-11-21T02:48:47;19.97;;;12.00;;
2998;SDS011;1509;51.964;7.628;2023-11-21T02:51:12;23.40;;;12.63;;
2998;SDS011;1509;51.964;7.628;2023-11-21T02:53:38;25.13;;;14.70;;
2998;SDS011;1509;51.964;7.628;2023-11-21T02:56:04;21.83;;;14.50;;
2998;SDS011;1509;51.964;7.628;2023-11-21T02:58:30;25.17;;;13.53;;
2998;SDS011;1509;51.964;7.628;2023-11-21T03:00:55;24.87;;;14.93;;
2998;SDS011;1509;51.964;7.628;2023-11-21T03:03:21;23.60;;;14.10;;
2998;SDS011;1509;51.964;7.628;2023-11-21T03:05:48;24.80;;;14.40;;
2998;SDS011;1509;51.964;7.628;2023-11-21T03:08:14;24.37;;;13.60;;
2998;SDS011;1509;51.964;7.628;2023-11-21T03:10:40;22.60;;;15.90;;
2998;SDS011;1509;51.964;7.628;2023-11-21T03:13:05;23.40;;;14.90;;
2998;SDS011;1509;51.964;7.628;2023-11-21T03:15:31;25.40;;;15.30;;
2998;SDS011;1509;51.964;7.628;2023-11-21T03:17:57;23.97;;;13.80;;
2998;SDS011;1509;51.964;7.628;2023-11-21T03:20:23;30.10;;;18.43;;
2998;SDS011;1509;51.964;7.628;2023-11-21T03:22:49;23.73;;;16.47;;
2998;SDS011;1509;51.964;7.628;2023-11-21T03:25:15;31.47;;;15.50;;
2998;SDS011;1509;51.964;7.628;2023-11-21T03:27:42;23.43;;;14.43;;
2998;SDS011;1509;51.964;7.628;2023-11-21T03:30:09;27.47;;;15.70;;
2998;SDS011;1509;51.964;7.628;2023-11-21T03:32:37;26.57;;;13.90;;
2998;SDS011;1509;51.964;7.628;2023-11-21T03:35:03;36.37;;;14.37;;
2998;SDS011;1509;51.964;7.628;2023-11-21T03:37:30;26.70;;;16.07;;
2998;SDS011;1509;51.964;7.628;2023-11-21T03:39:56;31.13;;;14.53;;
2998;SDS011;1509;51.964;7.628;2023-11-21T03:42:22;31.70;;;16.40;;
2998;SDS011;1509;51.964;7.628;2023-11-21T03:44:47;26.70;;;13.77;;
2998;SDS011;1509;51.964;7.628;2023-11-21T03:47:13;27.70;;;14.57;;
2998;SDS011;1509;51.964;7.628;2023-11-21T03:49:38;30.20;;;14.10;;
2998;SDS011;1509;51.964;7.628;2023-11-21T03:52:04;25.23;;;13.40;;
2998;SDS011;1509;51.964;7.628;2023-11-21T03:54:30;27.40;;;13.80;;
2998;SDS011;1509;51.964;7.628;2023-11-21T03:56:56;26.70;;;14.83;;
2998;SDS011;1509;51.964;7.628;2023-11-21T03:59:21;25.53;;;14.10;;
2998;SDS011;1509;51.964;7.628;2023-11-21T04:01:49;28.97;;;14.20;;
2998;SDS011;1509;51.964;7.628;2023-11-21T04:04:15;23.23;;;14.90;;
2998;SDS011;1509;51.964;7.628;2023-11-21T04:06:41;26.57;;;14.43;;
2998;SDS011;1509;51.964;7.628;2023-11-21T04:09:06;24.17;;;13.50;;
2998;SDS011;1509;51.964;7.628;2023-11-21T04:11:32;25.53;;;14.70;;
2998;SDS011;1509;51.964;7.628;2023-11-21T04:13:57;26.40;;;13.90;;
2998;SDS011;1509;51.964;7.628;2023-11-21T04:16:23;29.33;;;13.60;;
2998;SDS011;1509;51.964;7.628;2023-11-21T04:18:49;25.83;;;11.40;;
2998;SDS011;1509;51.964;7.628;2023-11-21T04:21:14;20.87;;;12.53;;
2998;SDS011;1509;51.964;7.628;2023-11-21T04:23:40;20.63;;;11.80;;
2998;SDS011;1509;51.964;7.628;2023-11-21T04:26:05;26.07;;;13.17;;
2998;SDS011;1509;51.964;7.628;2023-11-21T04:28:31;26.53;;;12.77;;
2998;SDS011;1509;51.964;7.628;2023-11-21T04:30:57;22.50;;;13.20;;
2998;SDS011;1509;51.964;7.628;2023-11-21T04:33:23;24.67;;;11.87;;
2998;SDS011;1509;51.964;7.628;2023-11-21T04:35:48;23.33;;;13.13;;
2998;SDS011;1509;51.964;7.628;2023-11-21T04:38:14;26.67;;;13.40;;
2998;SDS011;1509;51.964;7.628;2023-11-21T04:40:40;22.20;;;12.83;;
2998;SDS011;1509;51.964;7.628;2023-11-21T04:43:05;23.10;;;11.57;;
2998;SDS011;1509;51.964;7.628;2023-11-21T04:45:31;21.80;;;12.23;;
2998;SDS011;1509;51.964;7.628;2023-11-21T04:47:56;21.70;;;11.90;;
2998;SDS011;1509;51.964;7.628;2023-11-21T04:50:22;26.97;;;13.43;;
2998;SDS011;1509;51.964;7.628;2023-11-21T04:52:48;20.77;;;11.70;;
2998;SDS011;1509;51.964;7.628;2023-11-21T04:55:16;25.70;;;12.53;;
2998;SDS011;1509;51.964;7.628;2023-11-21T04:57:41;17.73;;;11.90;;
2998;SDS011;1509;51.964;7.628;2023-11-21T05:00:08;30.27;;;12.27;;
2998;SDS011;1509;51.964;7.628;2023-11-21T05:02:34;23.97;;;11.77;;
2998;SDS011;1509;51.964;7.628;2023-11-21T05:05:00;18.17;;;11.23;;
2998;SDS011;1509;51.964;7.628;2023-11-21T05:07:27;22.90;;;11.50;;
2998;SDS011;1509;51.964;7.628;2023-11-21T05:09:54;21.83;;;11.97;;
2998;SDS011;1509;51.964;7.628;2023-11-21T05:12:21;31.43;;;14.00;;
2998;SDS011;1509;51.964;7.628;2023-11-21T05:14:48;23.80;;;13.00;;
2998;SDS011;1509;51.964;7.628;2023-11-21T05:17:14;24.77;;;12.77;;
2998;SDS011;1509;51.964;7.628;2023-11-21T05:19:39;27.40;;;14.50;;
2998;SDS011;1509;51.964;7.628;2023-11-21T05:22:06;32.13;;;12.60;;
2998;SDS011;1509;51.964;7.628;2023-11-21T05:24:31;38.97;;;16.77;;
2998;SDS011;1509;51.964;7.628;2023-11-21T05:26:57;28.37;;;12.30;;
2998;SDS011;1509;51.964;7.628;2023-11-21T05:29:22;26.60;;;14.00;;
2998;SDS011;1509;51.964;7.628;2023-11-21T05:31:48;27.83;;;14.03;;
2998;SDS011;1509;51.964;7.628;2023-11-21T05:34:14;33.73;;;14.77;;
2998;SDS011;1509;51.964;7.628;2023-11-21T05:36:42;34.83;;;15.90;;
2998;SDS011;1509;51.964;7.628;2023-11-21T05:39:08;31.43;;;16.33;;
2998;SDS011;1509;51.964;7.628;2023-11-21T05:41:36;28.63;;;16.57;;
2998;SDS011;1509;51.964;7.628;2023-11-21T05:44:01;33.17;;;14.47;;
2998;SDS011;1509;51.964;7.628;2023-11-21T05:46:27;26.10;;;14.53;;
2998;SDS011;1509;51.964;7.628;2023-11-21T05:48:53;32.63;;;14.20;;
2998;SDS011;1509;51.964;7.628;2023-11-21T05:51:18;35.07;;;15.17;;
2998;SDS011;1509;51.964;7.628;2023-11-21T05:53:44;28.73;;;14.63;;
2998;SDS011;1509;51.964;7.628;2023-11-21T05:56:10;34.43;;;14.00;;
2998;SDS011;1509;51.964;7.628;2023-11-21T05:58:35;39.70;;;14.97;;
2998;SDS011;1509;51.964;7.628;2023-11-21T06:01:01;29.93;;;15.30;;
2998;SDS011;1509;51.964;7.628;2023-11-21T06:03:28;29.80;;;13.77;;
2998;SDS011;1509;51.964;7.628;2023-11-21T06:05:53;28.90;;;13.23;;
2998;SDS011;1509;51.964;7.628;2023-11-21T06:08:19;33.00;;;16.07;;
2998;SDS011;1509;51.964;7.628;2023-11-21T06:10:44;30.30;;;14.33;;
2998;SDS011;1509;51.964;7.628;2023-11-21T06:13:14;37.07;;;15.37;;
2998;SDS011;1509;51.964;7.628;2023-11-21T06:15:39;23.00;;;13.03;;
2998;SDS011;1509;51.964;7.628;2023-11-21T06:18:05;35.73;;;16.83;;
2998;SDS011;1509;51.964;7.628;2023-11-21T06:20:34;38.50;;;16.80;;
2998;SDS011;1509;51.964;7.628;2023-11-21T06:23:02;31.57;;;15.07;;
2998;SDS011;1509;51.964;7.628;2023-11-21T06:25:28;29.30;;;13.70;;
2998;SDS011;1509;51.964;7.628;2023-11-21T06:27:54;29.03;;;14.40;;
2998;SDS011;1509;51.964;7.628;2023-11-21T06:30:21;28.17;;;13.77;;
2998;SDS011;1509;51.964;7.628;2023-11-21T06:32:48;34.60;;;15.43;;
2998;SDS011;1509;51.964;7.628;2023-11-21T06:35:14;24.20;;;12.50;;
2998;SDS011;1509;51.964;7.628;2023-11-21T06:37:40;33.73;;;15.60;;
2998;SDS011;1509;51.964;7.628;2023-11-21T06:40:06;32.33;;;15.83;;
2998;SDS011;1509;51.964;7.628;2023-11-21T06:42:32;28.70;;;15.93;;
2998;SDS011;1509;51.964;7.628;2023-11-21T06:45:03;39.53;;;16.87;;
2998;SDS011;1509;51.964;7.628;2023-11-21T06:47:29;35.40;;;16.17;;
2998;SDS011;1509;51.964;7.628;2023-11-21T06:49:55;34.77;;;16.50;;
2998;SDS011;1509;51.964;7.628;2023-11-21T06:52:21;42.33;;;19.97;;
2998;SDS011;1509;51.964;7.628;2023-11-21T06:54:48;36.43;;;16.80;;
2998;SDS011;1509;51.964;7.628;2023-11-21T06:57:16;44.80;;;17.40;;
2998;SDS011;1509;51.964;7.628;2023-11-21T06:59:42;41.93;;;17.47;;
2998;SDS011;1509;51.964;7.628;2023-11-21T07:02:08;28.03;;;16.40;;
2998;SDS011;1509;51.964;7.628;2023-11-21T07:04:34;38.17;;;16.80;;
2998;SDS011;1509;51.964;7.628;2023-11-21T07:07:03;39.10;;;17.93;;
2998;SDS011;1509;51.964;7.628;2023-11-21T07:09:29;37.43;;;16.60;;
2998;SDS011;1509;51.964;7.628;2023-11-21T07:11:56;39.40;;;16.53;;
2998;SDS011;1509;51.964;7.628;2023-11-21T07:14:22;48.43;;;20.10;;
2998;SDS011;1509;51.964;7.628;2023-11-21T07:16:48;32.53;;;16.97;;
2998;SDS011;1509;51.964;7.628;2023-11-21T07:19:14;36.83;;;16.70;;
2998;SDS011;1509;51.964;7.628;2023-11-21T07:21:39;41.83;;;18.80;;
2998;SDS011;1509;51.964;7.628;2023-11-21T07:24:06;39.20;;;18.87;;
2998;SDS011;1509;51.964;7.628;2023-11-21T07:26:33;38.50;;;17.70;;
2998;SDS011;1509;51.964;7.628;2023-11-21T07:29:00;31.13;;;16.40;;
2998;SDS011;1509;51.964;7.628;2023-11-21T07:31:26;34.63;;;15.80;;
2998;SDS011;1509;51.964;7.628;2023-11-21T07:33:52;36.70;;;15.90;;
2998;SDS011;1509;51.964;7.628;2023-11-21T07:36:18;41.03;;;16.80;;
2998;SDS011;1509;51.964;7.628;2023-11-21T07:38:45;35.03;;;17.97;;
2998;SDS011;1509;51.964;7.628;2023-11-21T07:41:11;41.37;;;17.63;;
2998;SDS011;1509;51.964;7.628;2023-11-21T07:43:41;50.23;;;18.80;;
2998;SDS011;1509;51.964;7.628;2023-11-21T07:46:07;39.00;;;17.17;;
2998;SDS011;1509;51.964;7.628;2023-11-21T07:48:35;44.60;;;19.37;;
2998;SDS011;1509;51.964;7.628;2023-11-21T07:51:02;45.27;;;19.27;;
2998;SDS011;1509;51.964;7.628;2023-11-21T07:53:31;41.23;;;18.30;;
2998;SDS011;1509;51.964;7.628;2023-11-21T07:55:58;45.93;;;18.07;;
2998;SDS011;1509;51.964;7.628;2023-11-21T07:58:27;43.23;;;17.60;;
2998;SDS011;1509;51.964;7.628;2023-11-21T08:00:53;43.33;;;19.80;;
2998;SDS011;1509;51.964;7.628;2023-11-21T08:03:19;42.53;;;17.67;;
2998;SDS011;1509;51.964;7.628;2023-11-21T08:05:45;47.63;;;17.70;;
2998;SDS011;1509;51.964;7.628;2023-11-21T08:08:10;34.40;;;16.80;;
2998;SDS011;1509;51.964;7.628;2023-11-21T08:10:38;37.63;;;17.30;;
2998;SDS011;1509;51.964;7.628;2023-11-21T08:13:05;45.67;;;19.10;;
2998;SDS011;1509;51.964;7.628;2023-11-21T08:15:55;50.70;;;21.50;;
2998;SDS011;1509;51.964;7.628;2023-11-21T08:18:23;44.93;;;20.50;;
2998;SDS011;1509;51.964;7.628;2023-11-21T08:20:49;44.60;;;20.10;;
2998;SDS011;1509;51.964;7.628;2023-11-21T08:23:15;44.80;;;20.20;;
2998;SDS011;1509;51.964;7.628;2023-11-21T08:25:44;47.97;;;20.43;;
2998;SDS011;1509;51.964;7.628;2023-11-21T08:28:10;46.97;;;19.70;;
2998;SDS011;1509;51.964;7.628;2023-11-21T08:30:36;43.00;;;19.97;;
2998;SDS011;1509;51.964;7.628;2023-11-21T08:33:02;47.60;;;20.10;;
2998;SDS011;1509;51.964;7.628;2023-11-21T08:35:28;54.87;;;22.00;;
2998;SDS011;1509;51.964;7.628;2023-11-21T08:37:54;38.67;;;18.20;;
2998;SDS011;1509;51.964;7.628;2023-11-21T08:40:20;39.37;;;17.60;;
2998;SDS011;1509;51.964;7.628;2023-11-21T08:42:50;43.30;;;18.90;;
2998;SDS011;1509;51.964;7.628;2023-11-21T08:45:17;44.00;;;18.13;;
2998;SDS011;1509;51.964;7.628;2023-11-21T08:47:47;34.97;;;16.43;;
2998;SDS011;1509;51.964;7.628;2023-11-21T08:50:13;38.33;;;17.17;;
2998;SDS011;1509;51.964;7.628;2023-11-21T08:52:39;44.23;;;18.47;;
2998;SDS011;1509;51.964;7.628;2023-11-21T08:55:06;42.93;;;17.50;;
2998;SDS011;1509;51.964;7.628;2023-11-21T08:57:37;38.50;;;18.13;;
2998;SDS011;1509;51.964;7.628;2023-11-21T09:00:06;39.83;;;18.27;;
2998;SDS011;1509;51.964;7.628;2023-11-21T09:02:39;37.77;;;16.50;;
2998;SDS011;1509;51.964;7.628;2023-11-21T09:05:07;36.57;;;15.23;;
2998;SDS011;1509;51.964;7.628;2023-11-21T09:07:36;29.43;;;15.40;;
2998;SDS011;1509;51.964;7.628;2023-11-21T09:10:03;28.07;;;14.43;;
2998;SDS011;1509;51.964;7.628;2023-11-21T09:12:32;28.85;;;16.33;;
2998;SDS011;1509;51.964;7.628;2023-11-21T09:15:05;22.00;;;12.17;;
2998;SDS011;1509;51.964;7.628;2023-11-21T09:17:32;30.20;;;13.50;;
2998;SDS011;1509;51.964;7.628;2023-11-21T09:19:59;27.70;;;13.70;;
2998;SDS011;1509;51.964;7.628;2023-11-21T09:22:25;26.53;;;12.70;;
2998;SDS011;1509;51.964;7.628;2023-11-21T09:24:51;35.73;;;14.60;;
2998;SDS011;1509;51.964;7.628;2023-11-21T09:27:17;24.97;;;13.17;;
2998;SDS011;1509;51.964;7.628;2023-11-21T09:29:43;24.53;;;12.13;;
2998;SDS011;1509;51.964;7.628;2023-11-21T09:32:08;28.37;;;11.63;;
2998;SDS011;1509;51.964;7.628;2023-11-21T09:34:39;22.37;;;11.10;;
2998;SDS011;1509;51.964;7.628;2023-11-21T09:37:05;17.23;;;9.67;;
2998;SDS011;1509;51.964;7.628;2023-11-21T09:39:31;23.80;;;10.90;;
2998;SDS011;1509;51.964;7.628;2023-11-21T09:42:02;22.20;;;11.40;;
2998;SDS011;1509;51.964;7.628;2023-11-21T09:44:35;22.03;;;10.83;;
2998;SDS011;1509;51.964;7.628;2023-11-21T09:47:07;25.23;;;11.70;;
2998;SDS011;1509;51.964;7.628;2023-11-21T09:49:35;16.10;;;10.03;;
2998;SDS011;1509;51.964;7.628;2023-11-21T09:52:04;19.53;;;10.93;;
2998;SDS011;1509;51.964;7.628;2023-11-21T09:54:34;16.13;;;10.20;;
2998;SDS011;1509;51.964;7.628;2023-11-21T09:57:00;14.63;;;8.70;;
2998;SDS011;1509;51.964;7.628;2023-11-21T09:59:30;16.87;;;9.77;;
2998;SDS011;1509;51.964;7.628;2023-11-21T10:01:57;19.27;;;10.27;;
2998;SDS011;1509;51.964;7.628;2023-11-21T10:04:23;15.87;;;8.90;;
2998;SDS011;1509;51.964;7.628;2023-11-21T10:06:51;13.97;;;10.77;;
2998;SDS011;1509;51.964;7.628;2023-11-21T10:09:19;19.00;;;9.87;;
2998;SDS011;1509;51.964;7.628;2023-11-21T10:11:46;14.80;;;9.67;;
2998;SDS011;1509;51.964;7.628;2023-11-21T10:14:14;18.67;;;10.00;;
2998;SDS011;1509;51.964;7.628;2023-11-21T10:16:44;20.47;;;10.47;;
2998;SDS011;1509;51.964;7.628;2023-11-21T10:19:14;17.30;;;10.40;;
2998;SDS011;1509;51.964;7.628;2023-11-21T10:21:41;18.23;;;9.90;;
2998;SDS011;1509;51.964;7.628;2023-11-21T10:24:07;18.70;;;11.60;;
2998;SDS011;1509;51.964;7.628;2023-11-21T10:26:33;26.53;;;12.40;;
2998;SDS011;1509;51.964;7.628;2023-11-21T10:28:59;23.23;;;11.40;;
2998;SDS011;1509;51.964;7.628;2023-11-21T10:31:28;16.90;;;10.87;;
2998;SDS011;1509;51.964;7.628;2023-11-21T10:34:12;24.70;;;11.03;;
2998;SDS011;1509;51.964;7.628;2023-11-21T10:36:41;20.00;;;11.90;;
2998;SDS011;1509;51.964;7.628;2023-11-21T10:39:07;19.20;;;11.30;;
2998;SDS011;1509;51.964;7.628;2023-11-21T10:41:33;23.87;;;11.43;;
2998;SDS011;1509;51.964;7.628;2023-11-21T10:44:00;15.90;;;11.00;;
2998;SDS011;1509;51.964;7.628;2023-11-21T10:46:29;25.20;;;14.27;;
2998;SDS011;1509;51.964;7.628;2023-11-21T10:48:59;21.57;;;11.53;;
2998;SDS011;1509;51.964;7.628;2023-11-21T10:51:27;17.33;;;10.40;;
2998;SDS011;1509;51.964;7.628;2023-11-21T10:53:53;16.20;;;9.50;;
2998;SDS011;1509;51.964;7.628;2023-11-21T10:56:19;25.13;;;10.70;;
2998;SDS011;1509;51.964;7.628;2023-11-21T10:58:48;17.23;;;10.13;;
2998;SDS011;1509;51.964;7.628;2023-11-21T11:01:17;16.47;;;9.70;;
2998;SDS011;1509;51.964;7.628;2023-11-21T11:03:44;20.73;;;10.50;;
2998;SDS011;1509;51.964;7.628;2023-11-21T11:06:09;18.03;;;9.40;;
2998;SDS011;1509;51.964;7.628;2023-11-21T11:08:37;20.93;;;10.33;;
2998;SDS011;1509;51.964;7.628;2023-11-21T11:11:05;17.00;;;9.60;;
2998;SDS011;1509;51.964;7.628;2023-11-21T11:13:31;19.93;;;10.03;;
2998;SDS011;1509;51.964;7.628;2023-11-21T11:15:59;14.67;;;9.37;;
2998;SDS011;1509;51.964;7.628;2023-11-21T11:18:32;13.13;;;8.47;;
2998;SDS011;1509;51.964;7.628;2023-11-21T11:21:05;16.57;;;9.60;;
2998;SDS011;1509;51.964;7.628;2023-11-21T11:26:33;16.60;;;9.23;;
2998;SDS011;1509;51.964;7.628;2023-11-21T11:34:26;13.37;;;8.03;;
2998;SDS011;1509;51.964;7.628;2023-11-21T11:37:03;16.23;;;8.40;;
2998;SDS011;1509;51.964;7.628;2023-11-21T11:39:40;17.50;;;8.63;;
2998;SDS011;1509;51.964;7.628;2023-11-21T11:42:08;16.73;;;8.60;;
2998;SDS011;1509;51.964;7.628;2023-11-21T11:50:09;13.17;;;8.03;;
2998;SDS011;1509;51.964;7.628;2023-11-21T11:52:45;14.07;;;8.37;;
2998;SDS011;1509;51.964;7.628;2023-11-21T11:55:13;16.97;;;9.13;;
2998;SDS011;1509;51.964;7.628;2023-11-21T11:57:50;12.47;;;7.53;;
2998;SDS011;1509;51.964;7.628;2023-11-21T12:02:56;13.53;;;8.13;;
2998;SDS011;1509;51.964;7.628;2023-11-21T12:05:24;16.47;;;8.60;;
2998;SDS011;1509;51.964;7.628;2023-11-21T12:07:55;15.80;;;7.97;;
2998;SDS011;1509;51.964;7.628;2023-11-21T12:10:23;37.30;;;22.30;;
2998;SDS011;1509;51.964;7.628;2023-11-21T12:12:50;13.60;;;8.17;;
2998;SDS011;1509;51.964;7.628;2023-11-21T12:15:18;13.37;;;7.20;;
2998;SDS011;1509;51.964;7.628;2023-11-21T12:17:44;8.33;;;5.90;;
2998;SDS011;1509;51.964;7.628;2023-11-21T12:20:13;8.00;;;4.70;;
2998;SDS011;1509;51.964;7.628;2023-11-21T12:22:46;8.37;;;5.30;;
2998;SDS011;1509;51.964;7.628;2023-11-21T12:25:13;6.47;;;4.37;;
2998;SDS011;1509;51.964;7.628;2023-11-21T12:27:44;8.87;;;5.30;;
2998;SDS011;1509;51.964;7.628;2023-11-21T12:30:11;6.47;;;4.47;;
2998;SDS011;1509;51.964;7.628;2023-11-21T12:32:41;8.83;;;4.43;;
2998;SDS011;1509;51.964;7.628;2023-11-21T12:35:11;5.60;;;3.70;;
2998;SDS011;1509;51.964;7.628;2023-11-21T12:37:38;8.07;;;4.40;;
2998;SDS011;1509;51.964;7.628;2023-11-21T12:40:08;7.77;;;4.40;;
2998;SDS011;1509;51.964;7.628;2023-11-21T12:42:41;7.00;;;4.57;;
2998;SDS011;1509;51.964;7.628;2023-11-21T12:47:49;8.27;;;5.73;;
2998;SDS011;1509;51.964;7.628;2023-11-21T12:50:18;9.43;;;5.70;;
2998;SDS011;1509;51.964;7.628;2023-11-21T12:52:48;8.50;;;5.93;;
2998;SDS011;1509;51.964;7.628;2023-11-21T12:55:18;8.60;;;5.37;;
2998;SDS011;1509;51.964;7.628;2023-11-21T12:58:00;11.17;;;5.37;;
2998;SDS011;1509;51.964;7.628;2023-11-21T13:00:34;7.60;;;5.70;;
2998;SDS011;1509;51.964;7.628;2023-11-21T13:03:05;9.70;;;5.67;;
2998;SDS011;1509;51.964;7.628;2023-11-21T13:05:35;8.77;;;5.70;;
2998;SDS011;1509;51.964;7.628;2023-11-21T13:08:05;8.30;;;4.93;;
2998;SDS011;1509;51.964;7.628;2023-11-21T13:10:38;9.53;;;5.03;;
2998;SDS011;1509;51.964;7.628;2023-11-21T13:13:06;10.60;;;5.53;;
2998;SDS011;1509;51.964;7.628;2023-11-21T13:16:00;6.13;;;4.30;;
2998;SDS011;1509;51.964;7.628;2023-11-21T13:18:26;10.00;;;5.40;;
2998;SDS011;1509;51.964;7.628;2023-11-21T13:20:53;6.70;;;5.40;;
2998;SDS011;1509;51.964;7.628;2023-11-21T13:23:23;8.53;;;6.03;;
2998;SDS011;1509;51.964;7.628;2023-11-21T13:25:50;10.37;;;8.00;;
2998;SDS011;1509;51.964;7.628;2023-11-21T13:28:19;9.27;;;6.90;;
2998;SDS011;1509;51.964;7.628;2023-11-21T13:30:48;10.53;;;6.67;;
2998;SDS011;1509;51.964;7.628;2023-11-21T13:33:17;12.33;;;7.30;;
2998;SDS011;1509;51.964;7.628;2023-11-21T13:35:46;13.70;;;7.70;;
2998;SDS011;1509;51.964;7.628;2023-11-21T13:38:17;14.50;;;7.27;;
2998;SDS011;1509;51.964;7.628;2023-11-21T13:40:48;15.13;;;8.50;;
2998;SDS011;1509;51.964;7.628;2023-11-21T13:43:19;12.10;;;7.20;;
2998;SDS011;1509;51.964;7.628;2023-11-21T13:45:47;14.43;;;8.37;;
2998;SDS011;1509;51.964;7.628;2023-11-21T13:48:37;16.50;;;8.70;;
2998;SDS011;1509;51.964;7.628;2023-11-21T13:51:07;14.37;;;9.47;;
2998;SDS011;1509;51.964;7.628;2023-11-21T13:53:44;14.13;;;8.80;;
2998;SDS011;1509;51.964;7.628;2023-11-21T13:56:12;14.43;;;8.60;;
2998;SDS011;1509;51.964;7.628;2023-11-21T13:58:43;15.30;;;9.80;;
2998;SDS011;1509;51.964;7.628;2023-11-21T14:01:18;15.23;;;10.23;;
2998;SDS011;1509;51.964;7.628;2023-11-21T14:04:04;17.07;;;9.10;;
2998;SDS011;1509;51.964;7.628;2023-11-21T14:06:44;12.07;;;8.73;;
2998;SDS011;1509;51.964;7.628;2023-11-21T14:09:16;11.93;;;7.70;;
2998;SDS011;1509;51.964;7.628;2023-11-21T14:11:50;14.13;;;9.00;;
2998;SDS011;1509;51.964;7.628;2023-11-21T14:14:17;13.30;;;7.93;;
2998;SDS011;1509;51.964;7.628;2023-11-21T14:16:43;10.83;;;7.30;;
2998;SDS011;1509;51.964;7.628;2023-11-21T14:19:09;10.87;;;7.13;;
2998;SDS011;1509;51.964;7.628;2023-11-21T14:21:41;13.20;;;7.63;;
2998;SDS011;1509;51.964;7.628;2023-11-21T14:24:12;10.07;;;7.27;;
2998;SDS011;1509;51.964;7.628;2023-11-21T14:26:41;12.40;;;6.60;;
2998;SDS011;1509;51.964;7.628;2023-11-21T14:29:08;10.83;;;6.03;;
2998;SDS011;1509;51.964;7.628;2023-11-21T14:31:37;12.57;;;6.93;;
2998;SDS011;1509;51.964;7.628;2023-11-21T14:34:03;8.87;;;6.27;;
2998;SDS011;1509;51.964;7.628;2023-11-21T14:36:31;11.13;;;7.10;;
2998;SDS011;1509;51.964;7.628;2023-11-21T14:38:56;11.97;;;6.27;;
2998;SDS011;1509;51.964;7.628;2023-11-21T14:41:22;9.40;;;7.20;;
2998;SDS011;1509;51.964;7.628;2023-11-21T14:43:53;14.27;;;6.90;;
2998;SDS011;1509;51.964;7.628;2023-11-21T14:46:19;12.50;;;7.80;;
2998;SDS011;1509;51.964;7.628;2023-11-21T14:48:45;11.20;;;6.47;;
2998;SDS011;1509;51.964;7.628;2023-11-21T14:51:24;13.40;;;6.30;;
2998;SDS011;1509;51.964;7.628;2023-11-21T14:53:52;9.70;;;6.83;;
2998;SDS011;1509;51.964;7.628;2023-11-21T14:56:34;10.20;;;7.00;;
2998;SDS011;1509;51.964;7.628;2023-11-21T14:59:02;9.03;;;6.13;;
2998;SDS011;1509;51.964;7.628;2023-11-21T15:01:33;15.10;;;6.70;;
2998;SDS011;1509;51.964;7.628;2023-11-21T15:04:18;8.70;;;5.53;;
2998;SDS011;1509;51.964;7.628;2023-11-21T15:07:01;11.33;;;7.40;;
2998;SDS011;1509;51.964;7.628;2023-11-21T15:09:28;9.03;;;5.97;;
2998;SDS011;1509;51.964;7.628;2023-11-21T15:12:04;8.20;;;6.03;;
2998;SDS011;1509;51.964;7.628;2023-11-21T15:14:43;7.87;;;6.10;;